createdAt,value
2017-08-29T00:02:26.469Z,66.30
2017-08-29T00:04:56.044Z,66.40
2017-08-29T00:07:25.997Z,66.50
2017-08-29T00:09:57.712Z,66.40
2017-08-29T00:12:26.875Z,66.30
2017-08-29T00:14:57.444Z,66.20
2017-08-29T00:17:26.902Z,67.00
2017-08-29T00:19:56.765Z,66.50
2017-08-29T00:22:26.639Z,66.60
2017-08-29T00:24:57.314Z,66.50
2017-08-29T00:27:26.669Z,66.60
2017-08-29T00:29:56.242Z,66.50
2017-08-29T00:32:26.944Z,66.60
2017-08-29T00:34:57.599Z,66.10
2017-08-29T00:37:27.378Z,66.10
2017-08-29T00:39:57.333Z,66.30
2017-08-29T00:42:27.323Z,66.20
2017-08-29T00:44:57.086Z,66.30
2017-08-29T00:47:26.728Z,66.30
2017-08-29T00:49:55.961Z,67.20
2017-08-29T00:52:25.836Z,66.40
2017-08-29T00:54:55.494Z,66.40
2017-08-29T00:57:25.633Z,66.70
2017-08-29T00:59:55.917Z,66.80
2017-08-29T01:02:25.309Z,66.80
2017-08-29T01:04:54.649Z,67.50
2017-08-29T01:07:25.073Z,66.70
2017-08-29T01:09:55.089Z,66.50
2017-08-29T01:12:28.332Z,67.20
2017-08-29T01:14:58.079Z,66.50
2017-08-29T01:17:27.699Z,66.70
2017-08-29T01:19:57.020Z,66.60
2017-08-29T01:22:26.564Z,66.70
2017-08-29T01:24:57.654Z,66.70
2017-08-29T01:27:27.532Z,66.70
2017-08-29T01:29:58.048Z,66.80
2017-08-29T01:32:31.003Z,67.00
2017-08-29T01:35:01.013Z,67.00
2017-08-29T01:37:31.968Z,67.00
2017-08-29T01:40:12.039Z,66.90
2017-08-29T01:42:42.212Z,66.90
2017-08-29T01:45:12.012Z,67.10
2017-08-29T01:47:42.098Z,67.00
2017-08-29T01:50:13.063Z,66.90
2017-08-29T01:52:42.352Z,66.80
2017-08-29T01:55:12.134Z,66.90
2017-08-29T01:57:42.449Z,66.80
2017-08-29T02:00:11.745Z,66.90
2017-08-29T02:02:44.982Z,66.70
2017-08-29T02:05:14.935Z,66.80
2017-08-29T02:07:45.037Z,66.90
2017-08-29T02:10:15.127Z,66.90
2017-08-29T02:12:45.856Z,66.80
2017-08-29T02:15:15.676Z,66.90
2017-08-29T02:17:45.393Z,66.90
2017-08-29T02:20:16.437Z,66.80
2017-08-29T02:22:50.481Z,66.80
2017-08-29T02:25:20.521Z,66.80
2017-08-29T02:27:49.650Z,67.00
2017-08-29T02:30:19.647Z,67.10
2017-08-29T02:32:49.732Z,67.20
2017-08-29T02:35:20.856Z,67.30
2017-08-29T02:37:52.438Z,67.00
2017-08-29T02:40:23.200Z,67.00
2017-08-29T02:42:53.549Z,66.90
2017-08-29T02:45:28.136Z,67.00
2017-08-29T02:47:58.311Z,67.20
2017-08-29T02:50:29.660Z,67.10
2017-08-29T02:53:01.477Z,66.90
2017-08-29T02:55:39.606Z,66.80
2017-08-29T02:58:11.376Z,66.80
2017-08-29T03:00:40.872Z,66.80
2017-08-29T03:03:10.878Z,66.90
2017-08-29T03:05:41.548Z,67.10
2017-08-29T03:08:12.310Z,66.90
2017-08-29T03:10:42.683Z,67.00
2017-08-29T03:13:12.783Z,66.90
2017-08-29T03:15:45.892Z,66.80
2017-08-29T03:18:18.290Z,66.80
2017-08-29T03:20:51.478Z,66.80
2017-08-29T03:23:23.971Z,66.80
2017-08-29T03:25:58.884Z,66.70
2017-08-29T03:28:28.583Z,66.70
2017-08-29T03:30:59.191Z,66.60
2017-08-29T03:33:32.372Z,66.70
2017-08-29T03:36:02.315Z,66.60
2017-08-29T03:38:32.438Z,66.30
2017-08-29T03:41:01.697Z,66.30
2017-08-29T03:43:31.340Z,66.30
2017-08-29T03:46:00.962Z,66.30
2017-08-29T03:48:30.775Z,67.10
2017-08-29T03:51:01.592Z,66.20
2017-08-29T03:53:32.431Z,66.00
2017-08-29T03:56:02.173Z,66.20
2017-08-29T03:58:31.823Z,66.10
2017-08-29T04:01:01.342Z,66.10
2017-08-29T04:03:30.551Z,66.10
2017-08-29T04:06:00.004Z,66.30
2017-08-29T04:08:29.777Z,66.40
2017-08-29T04:10:59.078Z,66.50
2017-08-29T04:13:28.306Z,66.50
2017-08-29T04:15:57.639Z,66.50
2017-08-29T04:18:26.929Z,66.40
2017-08-29T04:20:56.094Z,66.30
2017-08-29T04:23:25.165Z,66.40
2017-08-29T04:25:54.388Z,66.40
2017-08-29T04:28:23.557Z,66.50
2017-08-29T04:30:52.747Z,66.60
2017-08-29T04:33:22.039Z,66.40
2017-08-29T04:35:51.175Z,66.30
2017-08-29T04:38:20.521Z,66.20
2017-08-29T04:40:49.850Z,66.30
2017-08-29T04:43:19.310Z,66.10
2017-08-29T04:45:49.135Z,66.10
2017-08-29T04:48:18.436Z,66.20
2017-08-29T04:50:47.568Z,66.10
2017-08-29T04:53:16.894Z,66.10
2017-08-29T04:55:46.008Z,66.10
2017-08-29T04:58:15.101Z,66.30
2017-08-29T05:00:44.340Z,66.00
2017-08-29T05:03:13.491Z,65.90
2017-08-29T05:15:40.437Z,65.20
2017-08-29T05:18:17.859Z,65.40
2017-08-29T05:26:16.276Z,65.80
2017-08-29T05:28:53.050Z,66.00
2017-08-29T05:31:24.332Z,65.90
2017-08-29T05:33:53.553Z,65.60
2017-08-29T05:36:22.587Z,65.30
2017-08-29T05:38:51.976Z,65.20
2017-08-29T05:41:21.143Z,65.10
2017-08-29T05:43:50.273Z,65.00
2017-08-29T05:46:19.226Z,64.90
2017-08-29T05:48:48.207Z,65.00
2017-08-29T05:51:17.186Z,64.90
2017-08-29T05:53:46.165Z,64.60
2017-08-29T05:56:15.225Z,64.50
2017-08-29T05:58:46.538Z,64.00
2017-08-29T06:01:16.125Z,63.80
2017-08-29T06:03:46.665Z,63.30
2017-08-29T06:06:17.022Z,63.00
2017-08-29T06:08:47.137Z,63.00
2017-08-29T06:11:16.841Z,62.70
2017-08-29T06:13:50.557Z,62.70
2017-08-29T06:16:22.316Z,62.20
2017-08-29T06:18:52.526Z,61.80
2017-08-29T06:21:24.303Z,61.60
2017-08-29T06:23:57.567Z,61.40
2017-08-29T06:38:38.536Z,59.40
2017-08-29T06:41:40.002Z,59.40
2017-08-29T06:57:04.677Z,57.80
2017-08-29T07:00:08.998Z,58.10
2017-08-29T07:02:39.023Z,57.70
2017-08-29T07:05:07.988Z,57.70
2017-08-29T07:07:46.693Z,57.50
2017-08-29T07:10:16.996Z,57.00
2017-08-29T07:12:48.586Z,56.80
2017-08-29T07:15:18.520Z,56.50
2017-08-29T07:17:48.190Z,56.60
2017-08-29T07:20:18.228Z,56.10
2017-08-29T07:22:47.209Z,55.80
2017-08-29T07:25:16.295Z,55.90
2017-08-29T07:27:45.305Z,54.80
2017-08-29T07:30:14.289Z,54.50
2017-08-29T07:32:44.102Z,54.20
2017-08-29T07:35:13.067Z,54.40
2017-08-29T07:37:42.076Z,53.80
2017-08-29T07:40:11.989Z,53.70
2017-08-29T07:42:40.995Z,53.50
2017-08-29T07:45:09.955Z,53.20
2017-08-29T07:47:38.933Z,52.80
2017-08-29T07:50:08.634Z,52.50
2017-08-29T07:52:38.287Z,52.30
2017-08-29T07:55:07.390Z,52.60
2017-08-29T07:57:36.382Z,52.30
2017-08-29T08:00:05.368Z,51.80
2017-08-29T08:02:34.339Z,51.30
2017-08-29T08:05:03.313Z,50.90
2017-08-29T08:07:32.317Z,50.30
2017-08-29T08:10:01.306Z,49.50
2017-08-29T08:12:30.263Z,48.90
2017-08-29T08:14:59.230Z,48.70
2017-08-29T08:17:28.236Z,49.30
2017-08-29T08:19:58.319Z,49.10
2017-08-29T08:22:27.277Z,48.10
2017-08-29T08:24:56.280Z,48.00
2017-08-29T08:27:25.335Z,47.30
2017-08-29T08:29:54.354Z,45.70
2017-08-29T08:32:23.369Z,46.00
2017-08-29T08:34:52.331Z,45.40
2017-08-29T08:37:21.291Z,45.30
2017-08-29T08:39:50.275Z,44.30
2017-08-29T08:42:19.275Z,43.90
2017-08-29T08:44:48.274Z,42.90
2017-08-29T08:47:17.235Z,43.60
2017-08-29T08:49:46.198Z,43.50
2017-08-29T08:52:15.195Z,43.00
2017-08-29T08:54:44.163Z,41.60
2017-08-29T08:57:13.132Z,42.10
2017-08-29T08:59:42.136Z,40.00
2017-08-29T09:02:11.104Z,38.40
2017-08-29T09:04:40.067Z,39.20
2017-08-29T09:07:09.080Z,38.00
2017-08-29T09:09:38.053Z,36.80
2017-08-29T09:12:07.006Z,37.40
2017-08-29T09:14:36.007Z,36.90
2017-08-29T09:17:04.972Z,35.60
2017-08-29T09:19:33.967Z,35.10
2017-08-29T09:22:02.934Z,33.50
2017-08-29T09:24:31.900Z,33.80
2017-08-29T09:27:00.898Z,33.30
2017-08-29T09:29:29.890Z,32.90
2017-08-29T09:31:58.836Z,32.60
2017-08-29T09:34:27.800Z,32.60
2017-08-29T09:36:56.782Z,32.00
2017-08-29T09:39:25.774Z,31.70
2017-08-29T09:41:54.759Z,31.80
2017-08-29T09:44:23.726Z,31.30
2017-08-29T09:46:52.684Z,32.10
2017-08-29T09:49:21.651Z,30.50
2017-08-29T09:51:50.671Z,31.50
2017-08-29T09:54:19.636Z,30.30
2017-08-29T09:56:48.623Z,30.10
2017-08-29T09:59:17.625Z,30.10
2017-08-29T10:01:46.622Z,31.10
2017-08-29T10:04:15.603Z,30.10
2017-08-29T10:06:44.574Z,30.30
2017-08-29T10:09:13.552Z,28.90
2017-08-29T10:11:42.519Z,27.80
2017-08-29T10:14:11.498Z,28.50
2017-08-29T10:16:40.518Z,26.80
2017-08-29T10:19:09.494Z,27.80
2017-08-29T10:21:38.453Z,27.30
2017-08-29T10:24:07.440Z,27.20
2017-08-29T10:26:36.435Z,26.70
2017-08-29T10:29:05.447Z,27.30
2017-08-29T10:31:34.403Z,26.10
2017-08-29T10:34:03.393Z,26.20
2017-08-29T10:36:32.338Z,24.50
2017-08-29T10:39:01.295Z,24.70
2017-08-29T10:41:30.271Z,25.20
2017-08-29T10:43:59.248Z,25.60
2017-08-29T10:46:28.195Z,26.10
2017-08-29T10:48:57.183Z,24.90
2017-08-29T10:51:26.154Z,24.00
2017-08-29T10:53:55.135Z,23.80
2017-08-29T10:56:24.088Z,23.90
2017-08-29T10:58:53.036Z,23.00
2017-08-29T11:01:22.039Z,23.50
2017-08-29T11:03:51.013Z,23.50
2017-08-29T11:06:19.984Z,23.80
2017-08-29T11:08:48.941Z,23.00
2017-08-29T11:11:17.893Z,22.80
2017-08-29T11:13:46.868Z,23.40
2017-08-29T11:16:15.815Z,22.60
2017-08-29T11:18:44.788Z,22.90
2017-08-29T11:21:13.761Z,22.30
2017-08-29T11:23:42.726Z,22.50
2017-08-29T11:26:11.681Z,21.40
2017-08-29T11:28:40.648Z,20.90
2017-08-29T11:31:09.640Z,22.00
2017-08-29T11:33:38.607Z,21.90
2017-08-29T11:36:07.573Z,21.30
2017-08-29T11:38:36.635Z,20.40
2017-08-29T11:41:05.732Z,21.00
2017-08-29T11:43:34.712Z,19.80
2017-08-29T11:46:03.681Z,20.00
2017-08-29T11:48:32.661Z,20.50
2017-08-29T11:51:01.602Z,20.40
2017-08-29T11:53:30.565Z,20.30
2017-08-29T11:55:59.553Z,20.40
2017-08-29T11:58:28.526Z,20.10
2017-08-29T12:00:57.485Z,20.20
2017-08-29T12:03:26.448Z,19.60
2017-08-29T12:05:55.420Z,20.40
2017-08-29T12:08:24.383Z,19.80
2017-08-29T12:10:53.331Z,19.70
2017-08-29T12:13:22.291Z,20.10
2017-08-29T12:15:51.264Z,20.20
2017-08-29T12:18:20.207Z,20.90
2017-08-29T12:20:49.172Z,20.00
2017-08-29T12:23:18.151Z,20.00
2017-08-29T12:25:47.131Z,20.40
2017-08-29T12:28:16.122Z,20.00
2017-08-29T12:30:45.062Z,19.80
2017-08-29T12:33:14.041Z,19.10
2017-08-29T12:35:42.999Z,18.90
2017-08-29T12:38:16.149Z,19.30
2017-08-29T12:40:45.104Z,19.40
2017-08-29T12:43:14.076Z,19.70
2017-08-29T12:45:43.027Z,19.60
2017-08-29T12:48:11.982Z,19.00
2017-08-29T12:50:40.959Z,19.20
2017-08-29T12:53:09.939Z,19.50
2017-08-29T12:55:38.893Z,19.30
2017-08-29T12:58:07.901Z,18.60
2017-08-29T13:00:36.862Z,19.00
2017-08-29T13:03:05.811Z,18.60
2017-08-29T13:05:34.816Z,18.60
2017-08-29T13:08:03.796Z,18.90
2017-08-29T13:10:32.742Z,19.30
2017-08-29T13:13:01.736Z,19.20
2017-08-29T13:15:30.713Z,18.20
2017-08-29T13:17:59.662Z,18.50
2017-08-29T13:20:28.653Z,18.50
2017-08-29T13:22:57.610Z,18.70
2017-08-29T13:25:28.301Z,18.30
2017-08-29T13:27:57.722Z,18.50
2017-08-29T13:30:26.695Z,18.40
2017-08-29T13:32:55.700Z,18.20
2017-08-29T13:35:24.719Z,18.50
2017-08-29T13:37:53.709Z,18.60
2017-08-29T13:40:22.692Z,18.90
2017-08-29T13:42:51.647Z,18.40
2017-08-29T13:45:20.595Z,18.30
2017-08-29T13:47:49.547Z,18.70
2017-08-29T13:50:18.575Z,18.70
2017-08-29T13:52:47.625Z,18.20
2017-08-29T13:55:16.571Z,17.80
2017-08-29T13:57:45.523Z,17.50
2017-08-29T14:00:14.528Z,18.20
2017-08-29T14:02:43.513Z,19.00
2017-08-29T14:05:12.488Z,19.10
2017-08-29T14:07:41.456Z,18.30
2017-08-29T14:10:10.395Z,18.70
2017-08-29T14:12:39.364Z,17.90
2017-08-29T14:15:08.320Z,16.70
2017-08-29T14:17:37.361Z,17.00
2017-08-29T14:20:06.333Z,17.00
2017-08-29T14:22:35.276Z,16.60
2017-08-29T14:25:04.231Z,16.90
2017-08-29T14:27:33.189Z,17.10
2017-08-29T14:30:02.160Z,17.10
2017-08-29T14:32:31.111Z,17.20
2017-08-29T14:35:00.148Z,17.10
2017-08-29T14:37:29.145Z,17.30
2017-08-29T14:39:58.091Z,17.40
2017-08-29T14:42:27.100Z,17.50
2017-08-29T14:44:56.063Z,17.10
2017-08-29T14:47:42.659Z,16.40
2017-08-29T14:50:11.622Z,16.80
2017-08-29T14:52:40.568Z,16.90
2017-08-29T14:55:09.539Z,17.40
2017-08-29T14:57:38.488Z,17.60
2017-08-29T15:00:07.463Z,17.70
2017-08-29T15:02:36.433Z,17.50
2017-08-29T15:05:05.412Z,17.00
2017-08-29T15:07:34.368Z,17.30
2017-08-29T15:10:03.332Z,17.50
2017-08-29T15:12:32.382Z,17.60
2017-08-29T15:15:01.355Z,18.00
2017-08-29T15:17:30.300Z,17.90
2017-08-29T15:19:59.288Z,18.20
2017-08-29T15:22:28.263Z,18.10
2017-08-29T15:24:57.272Z,18.10
2017-08-29T15:27:26.220Z,18.70
2017-08-29T15:29:55.166Z,19.10
2017-08-29T15:32:24.127Z,20.00
2017-08-29T15:34:53.088Z,20.90
2017-08-29T15:37:22.087Z,21.80
2017-08-29T15:39:51.059Z,21.70
2017-08-29T15:42:20.027Z,21.50
2017-08-29T15:44:48.973Z,21.30
2017-08-29T15:47:17.923Z,21.90
2017-08-29T15:49:46.906Z,21.80
2017-08-29T15:52:15.971Z,21.30
2017-08-29T15:54:44.994Z,21.20
2017-08-29T15:57:13.967Z,22.00
2017-08-29T15:59:42.921Z,23.10
2017-08-29T16:02:12.067Z,23.30
2017-08-29T16:04:41.022Z,23.40
2017-08-29T16:07:09.973Z,24.20
2017-08-29T16:09:39.040Z,24.50
2017-08-29T16:12:08.004Z,25.00
2017-08-29T16:14:37.052Z,24.50
2017-08-29T16:17:06.017Z,24.30
2017-08-29T16:19:35.194Z,24.10
2017-08-29T16:22:04.196Z,23.90
2017-08-29T16:24:33.184Z,23.60
2017-08-29T16:27:02.170Z,24.20
2017-08-29T16:29:31.127Z,23.50
2017-08-29T16:32:00.085Z,23.90
2017-08-29T16:34:29.052Z,25.40
2017-08-29T16:36:58.008Z,25.00
2017-08-29T16:39:27.003Z,27.00
2017-08-29T16:41:55.953Z,28.40
2017-08-29T16:44:24.911Z,27.80
2017-08-29T16:46:53.873Z,28.30
2017-08-29T16:49:22.825Z,28.90
2017-08-29T16:51:51.809Z,29.10
2017-08-29T16:54:20.764Z,29.50
2017-08-29T16:56:49.758Z,30.00
2017-08-29T16:59:18.694Z,30.40
2017-08-29T17:01:47.642Z,31.20
2017-08-29T17:04:16.623Z,31.50
2017-08-29T17:06:45.624Z,31.50
2017-08-29T17:09:14.558Z,32.20
2017-08-29T17:11:43.510Z,32.80
2017-08-29T17:14:12.507Z,33.00
2017-08-29T17:16:41.481Z,33.70
2017-08-29T17:19:10.434Z,34.20
2017-08-29T17:21:39.378Z,35.30
2017-08-29T17:24:08.360Z,35.80
2017-08-29T17:26:37.311Z,36.70
2017-08-29T17:29:06.300Z,37.40
2017-08-29T17:31:35.299Z,37.60
2017-08-29T17:34:04.256Z,38.10
2017-08-29T17:36:33.223Z,39.30
2017-08-29T17:39:02.226Z,40.50
2017-08-29T17:41:31.158Z,41.40
2017-08-29T17:44:00.139Z,42.90
2017-08-29T17:46:29.149Z,43.30
2017-08-29T17:48:58.136Z,44.70
2017-08-29T17:51:27.106Z,45.70
2017-08-29T17:53:56.083Z,46.70
2017-08-29T17:56:25.057Z,48.00
2017-08-29T17:58:54.000Z,48.50
2017-08-29T18:01:22.975Z,49.80
2017-08-29T18:03:51.929Z,50.50
2017-08-29T18:06:20.900Z,50.80
2017-08-29T18:08:49.847Z,51.70
2017-08-29T18:11:18.811Z,52.30
2017-08-29T18:13:47.767Z,52.80
2017-08-29T18:16:16.730Z,53.50
2017-08-29T18:18:45.708Z,54.10
2017-08-29T18:21:14.671Z,54.50
2017-08-29T18:23:43.630Z,54.90
2017-08-29T18:26:12.590Z,55.60
2017-08-29T18:28:41.572Z,55.80
2017-08-29T18:31:10.559Z,55.90
2017-08-29T18:33:39.516Z,56.10
2017-08-29T18:36:08.463Z,56.30
2017-08-29T18:38:37.435Z,56.50
2017-08-29T18:41:06.384Z,57.00
2017-08-29T18:43:35.351Z,57.50
2017-08-29T18:46:04.308Z,57.60
2017-08-29T18:48:33.263Z,57.60
2017-08-29T18:51:02.226Z,57.60
2017-08-29T18:53:31.211Z,58.00
2017-08-29T18:56:00.191Z,58.20
2017-08-29T18:58:29.184Z,58.10
2017-08-29T19:00:58.192Z,58.10
2017-08-29T19:03:27.204Z,58.20
2017-08-29T19:05:56.196Z,58.30
2017-08-29T19:08:27.113Z,58.30
2017-08-29T19:10:56.469Z,58.40
2017-08-29T19:13:25.429Z,58.60
2017-08-29T19:15:54.397Z,58.80
2017-08-29T19:18:24.814Z,58.80
2017-08-29T19:28:26.321Z,59.10
2017-08-29T19:30:55.321Z,59.20
2017-08-29T19:33:24.327Z,59.20
2017-08-29T19:36:22.196Z,59.40
2017-08-29T19:39:15.641Z,59.70
2017-08-29T19:41:50.288Z,59.90
2017-08-29T19:44:19.263Z,60.00
2017-08-29T19:46:48.218Z,60.20
2017-08-29T19:49:17.206Z,60.10
2017-08-29T19:51:55.319Z,60.10
2017-08-29T19:54:24.357Z,60.20
2017-08-29T19:56:53.424Z,60.10
2017-08-29T19:59:22.482Z,60.30
2017-08-29T20:01:53.817Z,60.40
2017-08-29T20:04:36.435Z,60.40
2017-08-29T20:07:13.325Z,60.30
2017-08-29T20:10:00.389Z,60.40
2017-08-29T20:12:29.402Z,60.80
2017-08-29T20:14:58.405Z,61.00
2017-08-29T20:17:27.417Z,61.10
2017-08-29T20:19:56.438Z,61.20
2017-08-29T20:22:25.719Z,61.30
2017-08-29T20:25:01.294Z,61.30
2017-08-29T20:27:34.291Z,61.30
2017-08-29T20:30:03.825Z,61.30
2017-08-29T20:32:33.732Z,61.40
2017-08-29T20:35:03.712Z,61.40
2017-08-29T20:37:32.828Z,61.30
2017-08-29T20:40:01.860Z,61.60
2017-08-29T20:42:30.833Z,61.60
2017-08-29T20:44:59.804Z,61.60
2017-08-29T20:47:28.892Z,61.60
2017-08-29T20:49:57.839Z,61.80
2017-08-29T20:52:26.819Z,62.00
2017-08-29T20:54:56.019Z,62.10
2017-08-29T20:57:24.971Z,62.00
2017-08-29T20:59:53.981Z,62.10
2017-08-29T21:02:22.943Z,62.30
2017-08-29T21:04:52.297Z,62.10
2017-08-29T21:07:21.243Z,62.10
2017-08-29T21:09:50.243Z,62.10
2017-08-29T21:12:19.191Z,62.10
2017-08-29T21:14:48.364Z,62.30
2017-08-29T21:17:17.337Z,62.50
2017-08-29T21:19:46.299Z,62.70
2017-08-29T21:22:15.275Z,62.70
2017-08-29T21:24:44.232Z,62.50
2017-08-29T21:27:13.214Z,62.50
2017-08-29T21:29:42.166Z,62.40
2017-08-29T21:32:11.247Z,62.60
2017-08-29T21:34:40.222Z,62.90
2017-08-29T21:37:09.174Z,63.10
2017-08-29T21:39:38.155Z,63.10
2017-08-29T21:42:07.131Z,63.00
2017-08-29T21:44:36.114Z,62.90
2017-08-29T21:47:05.093Z,62.90
2017-08-29T21:49:34.032Z,62.70
2017-08-29T21:52:02.992Z,62.70
2017-08-29T21:54:31.930Z,62.80
2017-08-29T21:57:00.913Z,62.80
2017-08-29T21:59:29.868Z,63.00
2017-08-29T22:01:58.815Z,63.10
2017-08-29T22:04:27.787Z,63.20
2017-08-29T22:06:56.743Z,63.20
2017-08-29T22:09:25.700Z,63.10
2017-08-29T22:11:54.658Z,63.10
2017-08-29T22:14:23.640Z,63.20
2017-08-29T22:16:52.610Z,63.30
2017-08-29T22:19:21.579Z,63.50
2017-08-29T22:21:50.524Z,63.50
2017-08-29T22:24:19.487Z,63.60
2017-08-29T22:26:48.440Z,63.60
2017-08-29T22:29:17.381Z,63.60
2017-08-29T22:31:46.343Z,63.60
2017-08-29T22:34:15.291Z,64.40
2017-08-29T22:36:44.254Z,63.80
2017-08-29T22:39:13.221Z,64.00
2017-08-29T22:41:42.176Z,63.90
2017-08-29T22:44:11.152Z,64.00
2017-08-29T22:46:40.129Z,64.00
2017-08-29T22:49:09.080Z,64.00
2017-08-29T22:51:38.036Z,64.00
2017-08-29T22:54:06.991Z,64.10
2017-08-29T22:56:35.950Z,64.20
2017-08-29T22:59:04.896Z,64.30
2017-08-29T23:01:33.883Z,64.40
2017-08-29T23:04:02.857Z,64.40
2017-08-29T23:06:31.865Z,64.40
2017-08-29T23:09:00.812Z,64.40
2017-08-29T23:11:29.763Z,64.60
2017-08-29T23:13:58.742Z,64.50
2017-08-29T23:16:27.686Z,64.40
2017-08-29T23:18:56.654Z,64.40
2017-08-29T23:21:25.988Z,64.30
2017-08-29T23:23:54.939Z,64.30
2017-08-29T23:26:23.896Z,64.40
2017-08-29T23:28:52.852Z,64.60
2017-08-29T23:31:21.806Z,64.60
2017-08-29T23:33:50.767Z,64.80
2017-08-29T23:36:19.731Z,65.00
2017-08-29T23:38:48.683Z,64.90
2017-08-29T23:41:17.639Z,65.00
2017-08-29T23:43:46.606Z,65.00
2017-08-29T23:46:15.902Z,64.80
2017-08-29T23:48:44.961Z,64.80
2017-08-29T23:51:13.918Z,64.80
2017-08-29T23:53:42.883Z,64.70
2017-08-29T23:56:11.831Z,64.50
2017-08-29T23:58:40.795Z,64.60
